sensor_id;sensor_type;location;lat;lon;timestamp;P1;durP1;ratioP1;P2;durP2;ratioP2
78646;SDS011;67961;43.460;3.762;2023-05-10T00:01:22;4.25;;;1.80;;
78646;SDS011;67961;43.460;3.762;2023-05-10T00:03:48;3.97;;;1.10;;
78646;SDS011;67961;43.460;3.762;2023-05-10T00:06:14;5.32;;;1.63;;
78646;SDS011;67961;43.460;3.762;2023-05-10T00:08:40;4.03;;;1.50;;
78646;SDS011;67961;43.460;3.762;2023-05-10T00:11:05;4.40;;;1.80;;
78646;SDS011;67961;43.460;3.762;2023-05-10T00:13:31;4.25;;;1.60;;
78646;SDS011;67961;43.460;3.762;2023-05-10T00:15:57;1.48;;;1.15;;
78646;SDS011;67961;43.460;3.762;2023-05-10T00:18:22;4.35;;;1.50;;
78646;SDS011;67961;43.460;3.762;2023-05-10T00:20:48;5.55;;;1.88;;
78646;SDS011;67961;43.460;3.762;2023-05-10T00:23:14;3.65;;;1.55;;
78646;SDS011;67961;43.460;3.762;2023-05-10T00:25:40;4.93;;;1.60;;
78646;SDS011;67961;43.460;3.762;2023-05-10T00:44:55;7.82;;;1.80;;
78646;SDS011;67961;43.460;3.762;2023-05-10T00:47:21;3.40;;;1.60;;
78646;SDS011;67961;43.460;3.762;2023-05-10T00:49:47;4.55;;;1.73;;
78646;SDS011;67961;43.460;3.762;2023-05-10T00:52:12;4.85;;;1.60;;
78646;SDS011;67961;43.460;3.762;2023-05-10T00:54:38;4.85;;;1.40;;
78646;SDS011;67961;43.460;3.762;2023-05-10T00:57:04;2.40;;;1.23;;
78646;SDS011;67961;43.460;3.762;2023-05-10T00:59:30;7.32;;;1.23;;
78646;SDS011;67961;43.460;3.762;2023-05-10T01:01:56;4.05;;;1.45;;
78646;SDS011;67961;43.460;3.762;2023-05-10T01:04:23;3.42;;;1.48;;
78646;SDS011;67961;43.460;3.762;2023-05-10T01:06:51;2.97;;;1.30;;
78646;SDS011;67961;43.460;3.762;2023-05-10T01:09:17;7.10;;;1.73;;
78646;SDS011;67961;43.460;3.762;2023-05-10T01:11:44;2.65;;;1.25;;
78646;SDS011;67961;43.460;3.762;2023-05-10T01:14:10;4.10;;;2.25;;
78646;SDS011;67961;43.460;3.762;2023-05-10T01:16:37;5.60;;;1.95;;
78646;SDS011;67961;43.460;3.762;2023-05-10T01:19:38;5.55;;;2.03;;
78646;SDS011;67961;43.460;3.762;2023-05-10T01:22:09;3.70;;;1.65;;
78646;SDS011;67961;43.460;3.762;2023-05-10T01:34:54;3.17;;;1.30;;
78646;SDS011;67961;43.460;3.762;2023-05-10T01:37:52;5.97;;;1.80;;
78646;SDS011;67961;43.460;3.762;2023-05-10T01:40:30;3.30;;;1.55;;
78646;SDS011;67961;43.460;3.762;2023-05-10T01:43:03;7.60;;;2.33;;
78646;SDS011;67961;43.460;3.762;2023-05-10T01:45:41;4.05;;;1.60;;
78646;SDS011;67961;43.460;3.762;2023-05-10T01:48:20;4.90;;;1.88;;
78646;SDS011;67961;43.460;3.762;2023-05-10T01:50:47;5.15;;;1.70;;
78646;SDS011;67961;43.460;3.762;2023-05-10T01:53:17;4.43;;;2.10;;
78646;SDS011;67961;43.460;3.762;2023-05-10T01:55:47;3.92;;;1.42;;
78646;SDS011;67961;43.460;3.762;2023-05-10T01:58:19;3.65;;;1.98;;
78646;SDS011;67961;43.460;3.762;2023-05-10T02:00:47;5.30;;;1.70;;
78646;SDS011;67961;43.460;3.762;2023-05-10T02:03:16;4.43;;;1.92;;
78646;SDS011;67961;43.460;3.762;2023-05-10T02:05:46;2.35;;;1.45;;
78646;SDS011;67961;43.460;3.762;2023-05-10T02:08:14;4.00;;;1.85;;
78646;SDS011;67961;43.460;3.762;2023-05-10T02:10:42;4.60;;;2.28;;
78646;SDS011;67961;43.460;3.762;2023-05-10T02:13:10;6.70;;;2.00;;
78646;SDS011;67961;43.460;3.762;2023-05-10T02:15:37;6.75;;;2.38;;
78646;SDS011;67961;43.460;3.762;2023-05-10T02:18:05;5.50;;;1.85;;
78646;SDS011;67961;43.460;3.762;2023-05-10T02:20:31;4.63;;;1.70;;
78646;SDS011;67961;43.460;3.762;2023-05-10T02:22:58;6.60;;;2.58;;
78646;SDS011;67961;43.460;3.762;2023-05-10T02:25:24;3.90;;;1.65;;
78646;SDS011;67961;43.460;3.762;2023-05-10T02:27:51;8.52;;;2.30;;
78646;SDS011;67961;43.460;3.762;2023-05-10T02:30:20;7.18;;;2.20;;
78646;SDS011;67961;43.460;3.762;2023-05-10T02:32:48;7.25;;;2.20;;
78646;SDS011;67961;43.460;3.762;2023-05-10T02:35:14;5.55;;;1.80;;
78646;SDS011;67961;43.460;3.762;2023-05-10T02:37:41;6.90;;;2.00;;
78646;SDS011;67961;43.460;3.762;2023-05-10T02:40:08;5.60;;;2.00;;
78646;SDS011;67961;43.460;3.762;2023-05-10T02:42:36;6.40;;;2.58;;
78646;SDS011;67961;43.460;3.762;2023-05-10T02:45:22;6.85;;;2.55;;
78646;SDS011;67961;43.460;3.762;2023-05-10T02:47:51;4.85;;;1.92;;
78646;SDS011;67961;43.460;3.762;2023-05-10T02:50:17;6.90;;;2.60;;
78646;SDS011;67961;43.460;3.762;2023-05-10T02:52:47;5.90;;;2.03;;
78646;SDS011;67961;43.460;3.762;2023-05-10T02:55:19;5.20;;;2.00;;
78646;SDS011;67961;43.460;3.762;2023-05-10T02:57:55;4.43;;;2.00;;
78646;SDS011;67961;43.460;3.762;2023-05-10T03:00:24;5.22;;;2.15;;
78646;SDS011;67961;43.460;3.762;2023-05-10T03:02:50;9.00;;;2.30;;
78646;SDS011;67961;43.460;3.762;2023-05-10T03:05:16;5.53;;;2.40;;
78646;SDS011;67961;43.460;3.762;2023-05-10T03:07:41;7.40;;;2.10;;
78646;SDS011;67961;43.460;3.762;2023-05-10T03:10:08;8.10;;;2.65;;
78646;SDS011;67961;43.460;3.762;2023-05-10T03:18:06;6.28;;;2.20;;
78646;SDS011;67961;43.460;3.762;2023-05-10T03:20:35;7.45;;;2.25;;
78646;SDS011;67961;43.460;3.762;2023-05-10T03:23:12;7.43;;;2.80;;
78646;SDS011;67961;43.460;3.762;2023-05-10T03:25:46;7.15;;;2.42;;
78646;SDS011;67961;43.460;3.762;2023-05-10T03:28:14;6.28;;;2.13;;
78646;SDS011;67961;43.460;3.762;2023-05-10T03:30:42;7.47;;;2.55;;
78646;SDS011;67961;43.460;3.762;2023-05-10T03:33:08;7.00;;;2.75;;
78646;SDS011;67961;43.460;3.762;2023-05-10T03:35:35;9.93;;;2.33;;
78646;SDS011;67961;43.460;3.762;2023-05-10T03:38:01;9.68;;;2.88;;
78646;SDS011;67961;43.460;3.762;2023-05-10T03:40:27;7.28;;;3.13;;
78646;SDS011;67961;43.460;3.762;2023-05-10T03:42:56;9.23;;;2.60;;
78646;SDS011;67961;43.460;3.762;2023-05-10T03:45:22;7.90;;;2.33;;
78646;SDS011;67961;43.460;3.762;2023-05-10T03:47:47;7.72;;;2.60;;
78646;SDS011;67961;43.460;3.762;2023-05-10T03:50:13;11.88;;;2.72;;
78646;SDS011;67961;43.460;3.762;2023-05-10T03:52:39;10.75;;;3.05;;
78646;SDS011;67961;43.460;3.762;2023-05-10T03:55:05;10.52;;;2.40;;
78646;SDS011;67961;43.460;3.762;2023-05-10T03:57:31;9.80;;;2.88;;
78646;SDS011;67961;43.460;3.762;2023-05-10T03:59:57;11.43;;;2.70;;
78646;SDS011;67961;43.460;3.762;2023-05-10T04:02:22;10.43;;;2.65;;
78646;SDS011;67961;43.460;3.762;2023-05-10T04:04:48;9.63;;;3.08;;
78646;SDS011;67961;43.460;3.762;2023-05-10T04:07:14;8.68;;;2.58;;
78646;SDS011;67961;43.460;3.762;2023-05-10T04:09:40;7.30;;;2.90;;
78646;SDS011;67961;43.460;3.762;2023-05-10T04:12:05;6.25;;;2.00;;
78646;SDS011;67961;43.460;3.762;2023-05-10T04:14:31;7.50;;;3.10;;
78646;SDS011;67961;43.460;3.762;2023-05-10T04:16:57;9.25;;;2.88;;
78646;SDS011;67961;43.460;3.762;2023-05-10T04:19:23;12.40;;;3.80;;
78646;SDS011;67961;43.460;3.762;2023-05-10T04:21:48;9.57;;;3.55;;
78646;SDS011;67961;43.460;3.762;2023-05-10T04:24:14;10.60;;;2.90;;
78646;SDS011;67961;43.460;3.762;2023-05-10T04:26:40;9.52;;;2.72;;
78646;SDS011;67961;43.460;3.762;2023-05-10T04:29:05;6.38;;;2.38;;
78646;SDS011;67961;43.460;3.762;2023-05-10T04:31:31;8.32;;;2.80;;
78646;SDS011;67961;43.460;3.762;2023-05-10T04:33:57;11.43;;;3.10;;
78646;SDS011;67961;43.460;3.762;2023-05-10T04:36:23;11.43;;;3.85;;
78646;SDS011;67961;43.460;3.762;2023-05-10T04:38:48;10.77;;;3.30;;
78646;SDS011;67961;43.460;3.762;2023-05-10T04:41:14;9.80;;;3.15;;
78646;SDS011;67961;43.460;3.762;2023-05-10T04:43:39;10.82;;;3.97;;
78646;SDS011;67961;43.460;3.762;2023-05-10T04:46:05;8.63;;;2.50;;
78646;SDS011;67961;43.460;3.762;2023-05-10T04:48:32;9.70;;;3.25;;
78646;SDS011;67961;43.460;3.762;2023-05-10T04:50:58;6.28;;;2.15;;
78646;SDS011;67961;43.460;3.762;2023-05-10T04:53:23;8.82;;;3.05;;
78646;SDS011;67961;43.460;3.762;2023-05-10T04:55:49;7.47;;;2.85;;
78646;SDS011;67961;43.460;3.762;2023-05-10T04:58:15;9.75;;;2.83;;
78646;SDS011;67961;43.460;3.762;2023-05-10T05:00:40;9.07;;;2.40;;
78646;SDS011;67961;43.460;3.762;2023-05-10T05:03:07;10.43;;;2.88;;
78646;SDS011;67961;43.460;3.762;2023-05-10T05:05:32;8.23;;;2.50;;
78646;SDS011;67961;43.460;3.762;2023-05-10T05:07:58;6.85;;;2.28;;
78646;SDS011;67961;43.460;3.762;2023-05-10T05:10:24;9.23;;;2.95;;
78646;SDS011;67961;43.460;3.762;2023-05-10T05:12:49;8.15;;;2.38;;
78646;SDS011;67961;43.460;3.762;2023-05-10T05:15:15;9.60;;;2.90;;
78646;SDS011;67961;43.460;3.762;2023-05-10T05:17:42;6.93;;;2.50;;
78646;SDS011;67961;43.460;3.762;2023-05-10T05:20:08;9.18;;;3.00;;
78646;SDS011;67961;43.460;3.762;2023-05-10T05:22:35;10.23;;;2.80;;
78646;SDS011;67961;43.460;3.762;2023-05-10T05:25:01;9.68;;;2.83;;
78646;SDS011;67961;43.460;3.762;2023-05-10T05:27:28;6.38;;;1.80;;
78646;SDS011;67961;43.460;3.762;2023-05-10T05:29:57;7.22;;;2.22;;
78646;SDS011;67961;43.460;3.762;2023-05-10T05:32:23;10.55;;;2.67;;
78646;SDS011;67961;43.460;3.762;2023-05-10T05:34:49;7.43;;;2.35;;
78646;SDS011;67961;43.460;3.762;2023-05-10T05:37:16;8.48;;;2.50;;
78646;SDS011;67961;43.460;3.762;2023-05-10T05:39:43;6.13;;;2.10;;
78646;SDS011;67961;43.460;3.762;2023-05-10T05:42:09;7.47;;;2.42;;
78646;SDS011;67961;43.460;3.762;2023-05-10T05:44:35;8.90;;;2.03;;
78646;SDS011;67961;43.460;3.762;2023-05-10T05:47:00;5.25;;;2.08;;
78646;SDS011;67961;43.460;3.762;2023-05-10T05:49:26;5.65;;;2.33;;
78646;SDS011;67961;43.460;3.762;2023-05-10T05:51:52;7.53;;;3.05;;
78646;SDS011;67961;43.460;3.762;2023-05-10T05:54:18;7.70;;;2.63;;
78646;SDS011;67961;43.460;3.762;2023-05-10T05:56:43;5.70;;;1.95;;
78646;SDS011;67961;43.460;3.762;2023-05-10T05:59:09;7.05;;;2.17;;
78646;SDS011;67961;43.460;3.762;2023-05-10T06:01:35;5.05;;;1.75;;
78646;SDS011;67961;43.460;3.762;2023-05-10T06:04:01;6.13;;;2.38;;
78646;SDS011;67961;43.460;3.762;2023-05-10T06:06:27;7.20;;;1.90;;
78646;SDS011;67961;43.460;3.762;2023-05-10T06:08:53;6.20;;;1.98;;
78646;SDS011;67961;43.460;3.762;2023-05-10T06:11:18;5.30;;;2.35;;
78646;SDS011;67961;43.460;3.762;2023-05-10T06:13:45;7.13;;;2.33;;
78646;SDS011;67961;43.460;3.762;2023-05-10T06:16:12;5.30;;;1.70;;
78646;SDS011;67961;43.460;3.762;2023-05-10T06:18:38;6.43;;;1.88;;
78646;SDS011;67961;43.460;3.762;2023-05-10T06:21:03;4.28;;;1.70;;
78646;SDS011;67961;43.460;3.762;2023-05-10T06:23:29;7.72;;;2.22;;
78646;SDS011;67961;43.460;3.762;2023-05-10T06:25:55;5.00;;;2.22;;
78646;SDS011;67961;43.460;3.762;2023-05-10T06:28:20;5.60;;;1.95;;
78646;SDS011;67961;43.460;3.762;2023-05-10T06:30:46;6.45;;;1.73;;
78646;SDS011;67961;43.460;3.762;2023-05-10T06:33:12;6.10;;;2.13;;
78646;SDS011;67961;43.460;3.762;2023-05-10T06:35:38;4.97;;;1.70;;
78646;SDS011;67961;43.460;3.762;2023-05-10T06:38:04;6.80;;;2.22;;
78646;SDS011;67961;43.460;3.762;2023-05-10T06:40:29;6.32;;;2.63;;
78646;SDS011;67961;43.460;3.762;2023-05-10T06:42:55;4.10;;;2.03;;
78646;SDS011;67961;43.460;3.762;2023-05-10T06:45:21;4.80;;;1.73;;
78646;SDS011;67961;43.460;3.762;2023-05-10T06:47:47;6.07;;;2.30;;
78646;SDS011;67961;43.460;3.762;2023-05-10T06:50:12;7.07;;;2.10;;
78646;SDS011;67961;43.460;3.762;2023-05-10T06:52:38;5.32;;;1.95;;
78646;SDS011;67961;43.460;3.762;2023-05-10T06:55:04;4.78;;;2.00;;
78646;SDS011;67961;43.460;3.762;2023-05-10T06:57:31;5.18;;;1.92;;
78646;SDS011;67961;43.460;3.762;2023-05-10T06:59:58;6.05;;;1.92;;
78646;SDS011;67961;43.460;3.762;2023-05-10T07:02:24;5.45;;;2.00;;
78646;SDS011;67961;43.460;3.762;2023-05-10T07:04:49;5.70;;;2.20;;
78646;SDS011;67961;43.460;3.762;2023-05-10T07:07:16;6.30;;;2.08;;
78646;SDS011;67961;43.460;3.762;2023-05-10T07:09:42;5.97;;;2.05;;
78646;SDS011;67961;43.460;3.762;2023-05-10T07:12:08;4.95;;;1.75;;
78646;SDS011;67961;43.460;3.762;2023-05-10T07:14:33;6.03;;;2.03;;
78646;SDS011;67961;43.460;3.762;2023-05-10T07:16:59;6.80;;;2.08;;
78646;SDS011;67961;43.460;3.762;2023-05-10T07:19:25;6.03;;;2.15;;
78646;SDS011;67961;43.460;3.762;2023-05-10T07:21:50;8.30;;;2.40;;
78646;SDS011;67961;43.460;3.762;2023-05-10T07:24:16;8.20;;;2.20;;
78646;SDS011;67961;43.460;3.762;2023-05-10T07:26:42;3.03;;;1.52;;
78646;SDS011;67961;43.460;3.762;2023-05-10T07:29:08;5.18;;;2.10;;
78646;SDS011;67961;43.460;3.762;2023-05-10T07:31:33;8.20;;;2.40;;
78646;SDS011;67961;43.460;3.762;2023-05-10T07:33:59;7.47;;;2.08;;
78646;SDS011;67961;43.460;3.762;2023-05-10T07:36:25;8.68;;;2.20;;
78646;SDS011;67961;43.460;3.762;2023-05-10T07:38:51;5.20;;;2.33;;
78646;SDS011;67961;43.460;3.762;2023-05-10T07:41:17;5.30;;;1.92;;
78646;SDS011;67961;43.460;3.762;2023-05-10T07:43:42;5.80;;;2.03;;
78646;SDS011;67961;43.460;3.762;2023-05-10T07:46:08;7.03;;;2.33;;
78646;SDS011;67961;43.460;3.762;2023-05-10T07:48:36;8.70;;;2.60;;
78646;SDS011;67961;43.460;3.762;2023-05-10T07:51:02;13.65;;;2.55;;
78646;SDS011;67961;43.460;3.762;2023-05-10T07:53:27;6.90;;;2.20;;
78646;SDS011;67961;43.460;3.762;2023-05-10T07:55:54;4.82;;;2.10;;
78646;SDS011;67961;43.460;3.762;2023-05-10T07:58:25;6.88;;;2.25;;
78646;SDS011;67961;43.460;3.762;2023-05-10T08:00:51;5.07;;;2.05;;
78646;SDS011;67961;43.460;3.762;2023-05-10T08:03:17;8.52;;;2.97;;
78646;SDS011;67961;43.460;3.762;2023-05-10T08:05:43;7.32;;;2.42;;
78646;SDS011;67961;43.460;3.762;2023-05-10T08:08:08;5.43;;;2.30;;
78646;SDS011;67961;43.460;3.762;2023-05-10T08:10:34;7.03;;;3.00;;
78646;SDS011;67961;43.460;3.762;2023-05-10T08:13:00;6.05;;;2.20;;
78646;SDS011;67961;43.460;3.762;2023-05-10T08:15:25;7.05;;;2.50;;
78646;SDS011;67961;43.460;3.762;2023-05-10T08:17:51;8.40;;;2.65;;
78646;SDS011;67961;43.460;3.762;2023-05-10T08:20:17;5.35;;;2.40;;
78646;SDS011;67961;43.460;3.762;2023-05-10T08:22:45;6.40;;;1.90;;
78646;SDS011;67961;43.460;3.762;2023-05-10T08:25:11;8.50;;;2.10;;
78646;SDS011;67961;43.460;3.762;2023-05-10T08:27:37;8.30;;;2.00;;
78646;SDS011;67961;43.460;3.762;2023-05-10T08:30:02;6.32;;;2.28;;
78646;SDS011;67961;43.460;3.762;2023-05-10T08:32:28;3.47;;;1.75;;
78646;SDS011;67961;43.460;3.762;2023-05-10T08:34:54;4.55;;;2.05;;
78646;SDS011;67961;43.460;3.762;2023-05-10T08:37:20;5.63;;;2.28;;
78646;SDS011;67961;43.460;3.762;2023-05-10T08:39:47;5.20;;;2.05;;
78646;SDS011;67961;43.460;3.762;2023-05-10T08:42:13;5.57;;;2.47;;
78646;SDS011;67961;43.460;3.762;2023-05-10T08:44:44;3.38;;;1.67;;
78646;SDS011;67961;43.460;3.762;2023-05-10T08:47:13;8.95;;;1.98;;
78646;SDS011;67961;43.460;3.762;2023-05-10T08:49:43;5.63;;;1.92;;
78646;SDS011;67961;43.460;3.762;2023-05-10T08:52:12;5.00;;;2.25;;
78646;SDS011;67961;43.460;3.762;2023-05-10T08:54:41;7.75;;;2.10;;
78646;SDS011;67961;43.460;3.762;2023-05-10T08:57:07;4.10;;;1.67;;
78646;SDS011;67961;43.460;3.762;2023-05-10T08:59:33;3.72;;;1.60;;
78646;SDS011;67961;43.460;3.762;2023-05-10T09:01:58;6.97;;;2.17;;
78646;SDS011;67961;43.460;3.762;2023-05-10T09:04:25;4.05;;;2.03;;
78646;SDS011;67961;43.460;3.762;2023-05-10T09:06:51;4.65;;;2.17;;
78646;SDS011;67961;43.460;3.762;2023-05-10T09:09:17;6.68;;;2.47;;
78646;SDS011;67961;43.460;3.762;2023-05-10T09:11:44;5.85;;;2.33;;
78646;SDS011;67961;43.460;3.762;2023-05-10T09:14:10;3.95;;;1.92;;
78646;SDS011;67961;43.460;3.762;2023-05-10T09:16:37;5.22;;;1.60;;
78646;SDS011;67961;43.460;3.762;2023-05-10T09:19:03;9.70;;;1.65;;
78646;SDS011;67961;43.460;3.762;2023-05-10T09:21:29;6.55;;;2.30;;
78646;SDS011;67961;43.460;3.762;2023-05-10T09:23:56;3.95;;;1.73;;
78646;SDS011;67961;43.460;3.762;2023-05-10T09:26:22;4.15;;;1.83;;
78646;SDS011;67961;43.460;3.762;2023-05-10T09:31:18;2.70;;;1.38;;
78646;SDS011;67961;43.460;3.762;2023-05-10T09:33:44;3.63;;;1.98;;
78646;SDS011;67961;43.460;3.762;2023-05-10T09:36:14;6.18;;;2.03;;
78646;SDS011;67961;43.460;3.762;2023-05-10T09:38:47;5.15;;;1.70;;
78646;SDS011;67961;43.460;3.762;2023-05-10T09:41:19;8.90;;;2.00;;
78646;SDS011;67961;43.460;3.762;2023-05-10T09:43:47;4.78;;;2.00;;
78646;SDS011;67961;43.460;3.762;2023-05-10T09:46:13;5.25;;;1.65;;
78646;SDS011;67961;43.460;3.762;2023-05-10T09:48:40;5.53;;;2.05;;
78646;SDS011;67961;43.460;3.762;2023-05-10T09:51:08;5.28;;;2.25;;
78646;SDS011;67961;43.460;3.762;2023-05-10T09:53:34;4.65;;;2.08;;
78646;SDS011;67961;43.460;3.762;2023-05-10T09:56:00;4.35;;;1.70;;
78646;SDS011;67961;43.460;3.762;2023-05-10T09:58:25;4.20;;;1.98;;
78646;SDS011;67961;43.460;3.762;2023-05-10T10:00:51;6.95;;;2.30;;
78646;SDS011;67961;43.460;3.762;2023-05-10T10:03:19;4.18;;;2.03;;
78646;SDS011;67961;43.460;3.762;2023-05-10T10:05:46;3.35;;;1.50;;
78646;SDS011;67961;43.460;3.762;2023-05-10T10:08:13;4.65;;;1.85;;
78646;SDS011;67961;43.460;3.762;2023-05-10T10:10:40;5.60;;;1.60;;
78646;SDS011;67961;43.460;3.762;2023-05-10T10:13:06;3.70;;;1.92;;
78646;SDS011;67961;43.460;3.762;2023-05-10T10:15:33;4.50;;;1.60;;
78646;SDS011;67961;43.460;3.762;2023-05-10T10:17:59;3.28;;;1.40;;
78646;SDS011;67961;43.460;3.762;2023-05-10T10:20:26;4.30;;;1.70;;
78646;SDS011;67961;43.460;3.762;2023-05-10T10:22:52;6.32;;;1.90;;
78646;SDS011;67961;43.460;3.762;2023-05-10T10:25:18;4.57;;;1.95;;
78646;SDS011;67961;43.460;3.762;2023-05-10T10:35:31;3.35;;;1.75;;
78646;SDS011;67961;43.460;3.762;2023-05-10T10:37:57;3.83;;;1.45;;
78646;SDS011;67961;43.460;3.762;2023-05-10T10:40:27;4.20;;;1.80;;
78646;SDS011;67961;43.460;3.762;2023-05-10T10:42:58;7.35;;;1.70;;
78646;SDS011;67961;43.460;3.762;2023-05-10T10:45:44;5.68;;;1.70;;
78646;SDS011;67961;43.460;3.762;2023-05-10T10:48:32;4.95;;;2.20;;
78646;SDS011;67961;43.460;3.762;2023-05-10T10:50:58;4.13;;;2.10;;
78646;SDS011;67961;43.460;3.762;2023-05-10T10:53:26;6.70;;;2.08;;
78646;SDS011;67961;43.460;3.762;2023-05-10T10:56:02;4.85;;;2.00;;
78646;SDS011;67961;43.460;3.762;2023-05-10T10:58:32;6.18;;;2.15;;
78646;SDS011;67961;43.460;3.762;2023-05-10T11:01:15;4.25;;;1.80;;
78646;SDS011;67961;43.460;3.762;2023-05-10T11:06:28;3.78;;;1.90;;
78646;SDS011;67961;43.460;3.762;2023-05-10T11:08:56;6.28;;;2.10;;
78646;SDS011;67961;43.460;3.762;2023-05-10T11:11:22;3.92;;;1.73;;
78646;SDS011;67961;43.460;3.762;2023-05-10T11:13:48;5.32;;;2.10;;
78646;SDS011;67961;43.460;3.762;2023-05-10T11:16:17;4.15;;;2.05;;
78646;SDS011;67961;43.460;3.762;2023-05-10T11:18:58;7.07;;;2.17;;
78646;SDS011;67961;43.460;3.762;2023-05-10T11:21:24;3.67;;;1.70;;
78646;SDS011;67961;43.460;3.762;2023-05-10T11:23:55;4.10;;;1.70;;
78646;SDS011;67961;43.460;3.762;2023-05-10T11:26:22;5.25;;;2.13;;
78646;SDS011;67961;43.460;3.762;2023-05-10T11:28:51;3.70;;;1.73;;
78646;SDS011;67961;43.460;3.762;2023-05-10T11:31:19;2.92;;;1.80;;
78646;SDS011;67961;43.460;3.762;2023-05-10T11:33:46;4.20;;;1.60;;
78646;SDS011;67961;43.460;3.762;2023-05-10T11:36:17;3.42;;;1.90;;
78646;SDS011;67961;43.460;3.762;2023-05-10T11:38:44;6.93;;;1.80;;
78646;SDS011;67961;43.460;3.762;2023-05-10T11:41:11;4.28;;;2.20;;
78646;SDS011;67961;43.460;3.762;2023-05-10T11:43:40;4.25;;;1.77;;
78646;SDS011;67961;43.460;3.762;2023-05-10T11:46:07;4.50;;;1.83;;
78646;SDS011;67961;43.460;3.762;2023-05-10T11:48:35;4.20;;;1.67;;
78646;SDS011;67961;43.460;3.762;2023-05-10T11:51:03;5.32;;;2.22;;
78646;SDS011;67961;43.460;3.762;2023-05-10T11:53:29;5.10;;;2.10;;
78646;SDS011;67961;43.460;3.762;2023-05-10T11:56:05;4.57;;;2.00;;
78646;SDS011;67961;43.460;3.762;2023-05-10T11:58:36;6.05;;;2.20;;
78646;SDS011;67961;43.460;3.762;2023-05-10T12:01:03;3.58;;;1.65;;
78646;SDS011;67961;43.460;3.762;2023-05-10T12:03:30;8.48;;;2.60;;
78646;SDS011;67961;43.460;3.762;2023-05-10T12:05:56;4.55;;;1.92;;
78646;SDS011;67961;43.460;3.762;2023-05-10T12:08:23;3.90;;;1.67;;
78646;SDS011;67961;43.460;3.762;2023-05-10T12:10:53;5.10;;;2.20;;
78646;SDS011;67961;43.460;3.762;2023-05-10T12:13:28;3.95;;;2.10;;
78646;SDS011;67961;43.460;3.762;2023-05-10T12:15:54;4.30;;;1.70;;
78646;SDS011;67961;43.460;3.762;2023-05-10T12:18:23;4.28;;;2.15;;
78646;SDS011;67961;43.460;3.762;2023-05-10T12:20:51;3.65;;;1.83;;
78646;SDS011;67961;43.460;3.762;2023-05-10T12:23:18;2.78;;;1.58;;
78646;SDS011;67961;43.460;3.762;2023-05-10T12:25:45;5.75;;;2.20;;
78646;SDS011;67961;43.460;3.762;2023-05-10T12:28:11;5.63;;;2.10;;
78646;SDS011;67961;43.460;3.762;2023-05-10T12:30:37;5.00;;;1.98;;
78646;SDS011;67961;43.460;3.762;2023-05-10T12:33:10;3.78;;;1.70;;
78646;SDS011;67961;43.460;3.762;2023-05-10T12:36:10;7.80;;;1.90;;
78646;SDS011;67961;43.460;3.762;2023-05-10T12:38:29;5.05;;;2.08;;
78646;SDS011;67961;43.460;3.762;2023-05-10T12:41:00;3.28;;;1.88;;
78646;SDS011;67961;43.460;3.762;2023-05-10T12:43:27;4.72;;;1.85;;
78646;SDS011;67961;43.460;3.762;2023-05-10T12:45:53;5.28;;;2.08;;
78646;SDS011;67961;43.460;3.762;2023-05-10T12:48:18;5.05;;;2.00;;
78646;SDS011;67961;43.460;3.762;2023-05-10T12:50:45;2.35;;;1.45;;
78646;SDS011;67961;43.460;3.762;2023-05-10T12:53:10;3.15;;;1.77;;
78646;SDS011;67961;43.460;3.762;2023-05-10T12:55:36;4.38;;;1.63;;
78646;SDS011;67961;43.460;3.762;2023-05-10T12:58:02;3.38;;;1.63;;
78646;SDS011;67961;43.460;3.762;2023-05-10T13:00:27;3.85;;;1.67;;
78646;SDS011;67961;43.460;3.762;2023-05-10T13:02:53;4.43;;;1.70;;
78646;SDS011;67961;43.460;3.762;2023-05-10T13:05:19;3.17;;;1.60;;
78646;SDS011;67961;43.460;3.762;2023-05-10T13:07:44;5.10;;;1.98;;
78646;SDS011;67961;43.460;3.762;2023-05-10T13:10:10;2.15;;;1.48;;
78646;SDS011;67961;43.460;3.762;2023-05-10T13:12:36;4.75;;;1.52;;
78646;SDS011;67961;43.460;3.762;2023-05-10T13:15:02;5.43;;;2.00;;
78646;SDS011;67961;43.460;3.762;2023-05-10T13:17:29;3.17;;;1.70;;
78646;SDS011;67961;43.460;3.762;2023-05-10T13:19:54;3.53;;;1.73;;
78646;SDS011;67961;43.460;3.762;2023-05-10T13:22:20;3.88;;;1.55;;
78646;SDS011;67961;43.460;3.762;2023-05-10T13:24:45;4.50;;;1.70;;
78646;SDS011;67961;43.460;3.762;2023-05-10T13:27:11;5.07;;;2.00;;
78646;SDS011;67961;43.460;3.762;2023-05-10T13:29:37;4.85;;;1.70;;
78646;SDS011;67961;43.460;3.762;2023-05-10T13:32:02;5.20;;;1.80;;
78646;SDS011;67961;43.460;3.762;2023-05-10T13:34:28;4.40;;;1.60;;
78646;SDS011;67961;43.460;3.762;2023-05-10T13:36:54;5.38;;;2.00;;
78646;SDS011;67961;43.460;3.762;2023-05-10T13:39:21;4.90;;;1.70;;
78646;SDS011;67961;43.460;3.762;2023-05-10T13:41:47;3.25;;;1.63;;
78646;SDS011;67961;43.460;3.762;2023-05-10T13:44:13;2.60;;;1.33;;
78646;SDS011;67961;43.460;3.762;2023-05-10T13:46:40;4.03;;;1.70;;
78646;SDS011;67961;43.460;3.762;2023-05-10T13:49:07;5.55;;;1.60;;
78646;SDS011;67961;43.460;3.762;2023-05-10T13:51:33;2.40;;;1.15;;
78646;SDS011;67961;43.460;3.762;2023-05-10T13:53:59;4.00;;;2.10;;
78646;SDS011;67961;43.460;3.762;2023-05-10T13:56:25;3.60;;;1.40;;
78646;SDS011;67961;43.460;3.762;2023-05-10T13:58:51;2.33;;;1.17;;
78646;SDS011;67961;43.460;3.762;2023-05-10T14:01:17;3.55;;;1.45;;
78646;SDS011;67961;43.460;3.762;2023-05-10T14:03:42;5.78;;;1.52;;
78646;SDS011;67961;43.460;3.762;2023-05-10T14:06:08;2.83;;;1.40;;
78646;SDS011;67961;43.460;3.762;2023-05-10T14:08:34;2.45;;;1.08;;
78646;SDS011;67961;43.460;3.762;2023-05-10T14:11:00;4.57;;;1.45;;
78646;SDS011;67961;43.460;3.762;2023-05-10T14:13:26;2.35;;;1.38;;
78646;SDS011;67961;43.460;3.762;2023-05-10T14:15:52;3.25;;;1.25;;
78646;SDS011;67961;43.460;3.762;2023-05-10T14:18:19;2.60;;;1.30;;
78646;SDS011;67961;43.460;3.762;2023-05-10T14:20:44;2.45;;;1.25;;
78646;SDS011;67961;43.460;3.762;2023-05-10T14:23:10;2.67;;;1.40;;
78646;SDS011;67961;43.460;3.762;2023-05-10T14:25:37;2.78;;;1.40;;
78646;SDS011;67961;43.460;3.762;2023-05-10T14:28:04;2.92;;;1.63;;
78646;SDS011;67961;43.460;3.762;2023-05-10T14:30:30;4.88;;;1.38;;
78646;SDS011;67961;43.460;3.762;2023-05-10T14:32:57;2.55;;;1.20;;
78646;SDS011;67961;43.460;3.762;2023-05-10T14:35:23;2.05;;;1.20;;
78646;SDS011;67961;43.460;3.762;2023-05-10T14:37:49;2.58;;;1.52;;
78646;SDS011;67961;43.460;3.762;2023-05-10T14:40:15;6.47;;;1.35;;
78646;SDS011;67961;43.460;3.762;2023-05-10T14:42:42;4.65;;;1.48;;
78646;SDS011;67961;43.460;3.762;2023-05-10T14:45:08;3.97;;;1.55;;
78646;SDS011;67961;43.460;3.762;2023-05-10T14:47:35;2.15;;;1.17;;
78646;SDS011;67961;43.460;3.762;2023-05-10T14:50:00;4.57;;;1.40;;
78646;SDS011;67961;43.460;3.762;2023-05-10T14:52:26;2.67;;;1.67;;
78646;SDS011;67961;43.460;3.762;2023-05-10T14:54:52;3.88;;;1.95;;
78646;SDS011;67961;43.460;3.762;2023-05-10T14:57:18;5.80;;;1.42;;
78646;SDS011;67961;43.460;3.762;2023-05-10T14:59:44;3.88;;;1.52;;
78646;SDS011;67961;43.460;3.762;2023-05-10T15:02:09;3.63;;;1.70;;
78646;SDS011;67961;43.460;3.762;2023-05-10T15:04:35;3.88;;;2.03;;
78646;SDS011;67961;43.460;3.762;2023-05-10T15:07:01;2.40;;;1.58;;
78646;SDS011;67961;43.460;3.762;2023-05-10T15:09:27;9.20;;;1.88;;
78646;SDS011;67961;43.460;3.762;2023-05-10T15:11:53;5.03;;;1.75;;
78646;SDS011;67961;43.460;3.762;2023-05-10T15:14:19;3.58;;;1.55;;
78646;SDS011;67961;43.460;3.762;2023-05-10T15:16:45;3.53;;;1.70;;
78646;SDS011;67961;43.460;3.762;2023-05-10T15:19:10;4.50;;;1.90;;
78646;SDS011;67961;43.460;3.762;2023-05-10T15:21:36;4.22;;;1.73;;
78646;SDS011;67961;43.460;3.762;2023-05-10T15:24:06;2.15;;;1.33;;
78646;SDS011;67961;43.460;3.762;2023-05-10T15:26:32;2.25;;;1.77;;
78646;SDS011;67961;43.460;3.762;2023-05-10T15:28:58;10.23;;;2.10;;
78646;SDS011;67961;43.460;3.762;2023-05-10T15:31:24;2.88;;;1.73;;
78646;SDS011;67961;43.460;3.762;2023-05-10T15:33:49;7.10;;;1.92;;